QTR11K OTHH-OMDB
Flight info
| Callsign | QTR11K |
|---|---|
| Flight time | N/A |
| Altitude | 26000 |
| Route | ALSEM L305 ITBUL M677 VUTEB |
| Aircraft | A35K/H-SDE2E3GHIJ3J4J5LM1ORWXY/LB1D1 |
Departure
| Time | 2026-05-04 12:46 |
|---|---|
| Airport | Hamad International Airport (OTHH) |
Arrival
| Time | N/A |
|---|---|
| Airport | Dubai International Airport (OMDB) |
| Time | Latitude | Longitude | Altitude | Speed | Heading |
|---|---|---|---|---|---|
| 2026-05-04 12:19 | 25.26316 | 51.61589 | 36 ft | 0 kts | 159° |
| 2026-05-04 12:36 | 25.26319 | 51.61588 | 35 ft | 3 kts | 159° |
| 2026-05-04 12:36 | 25.26344 | 51.61578 | 34 ft | 4 kts | 159° |
| 2026-05-04 12:37 | 25.26369 | 51.61567 | 35 ft | 4 kts | 159° |
| 2026-05-04 12:37 | 25.26389 | 51.61559 | 33 ft | 4 kts | 172° |
| 2026-05-04 12:37 | 25.26411 | 51.61563 | 34 ft | 4 kts | 233° |
| 2026-05-04 12:37 | 25.26422 | 51.61587 | 33 ft | 4 kts | 248° |
| 2026-05-04 12:38 | 25.26430 | 51.61609 | 33 ft | 0 kts | 248° |
| 2026-05-04 12:40 | 25.26428 | 51.61604 | 36 ft | 3 kts | 248° |
| 2026-05-04 12:40 | 25.26406 | 51.61546 | 36 ft | 13 kts | 249° |
| 2026-05-04 12:41 | 25.26411 | 51.61453 | 36 ft | 11 kts | 320° |
| 2026-05-04 12:41 | 25.26483 | 51.61413 | 36 ft | 12 kts | 337° |
| 2026-05-04 12:41 | 25.26568 | 51.61388 | 36 ft | 13 kts | 11° |
| 2026-05-04 12:41 | 25.26595 | 51.61458 | 36 ft | 10 kts | 123° |
| 2026-05-04 12:42 | 25.26530 | 51.61502 | 36 ft | 11 kts | 141° |
| 2026-05-04 12:42 | 25.26521 | 51.61596 | 36 ft | 16 kts | 72° |
| 2026-05-04 12:42 | 25.26573 | 51.61731 | 36 ft | 22 kts | 69° |
| 2026-05-04 12:42 | 25.26605 | 51.61890 | 35 ft | 16 kts | 114° |
| 2026-05-04 12:43 | 25.26536 | 51.61935 | 35 ft | 12 kts | 159° |
| 2026-05-04 12:43 | 25.26431 | 51.61979 | 36 ft | 21 kts | 158° |
| 2026-05-04 12:43 | 25.26267 | 51.62051 | 36 ft | 30 kts | 159° |
| 2026-05-04 12:43 | 25.26059 | 51.62143 | 36 ft | 33 kts | 158° |
| 2026-05-04 12:44 | 25.25838 | 51.62239 | 36 ft | 35 kts | 158° |
| 2026-05-04 12:44 | 25.25608 | 51.62341 | 35 ft | 36 kts | 158° |
| 2026-05-04 12:44 | 25.25481 | 51.62445 | 35 ft | 14 kts | 92° |
| 2026-05-04 12:44 | 25.25513 | 51.62553 | 34 ft | 16 kts | 68° |
| 2026-05-04 12:45 | 25.25596 | 51.62638 | 33 ft | 17 kts | 14° |
| 2026-05-04 12:45 | 25.25668 | 51.62624 | 32 ft | 1 kts | 337° |
| 2026-05-04 12:45 | 25.25755 | 51.62585 | 32 ft | 44 kts | 338° |
| 2026-05-04 12:45 | 25.26283 | 51.62353 | 34 ft | 116 kts | 339° |
| 2026-05-04 12:46 | 25.27231 | 51.61937 | 101 ft | 170 kts | 341° |
| 2026-05-04 12:46 | 25.28368 | 51.61416 | 668 ft | 186 kts | 339° |
| 2026-05-04 12:46 | 25.29631 | 51.60864 | 1313 ft | 201 kts | 339° |
| 2026-05-04 12:46 | 25.30988 | 51.60277 | 1692 ft | 218 kts | 338° |
| 2026-05-04 12:47 | 25.32479 | 51.59740 | 2051 ft | 231 kts | 353° |
| 2026-05-04 12:47 | 25.34080 | 51.59904 | 2710 ft | 232 kts | 9° |
| 2026-05-04 12:47 | 25.35632 | 51.60270 | 3518 ft | 225 kts | 11° |
| 2026-05-04 12:47 | 25.36650 | 51.60540 | 3910 ft | 229 kts | 13° |
| 2026-05-04 12:48 | 25.38173 | 51.61269 | 4188 ft | 250 kts | 30° |
| 2026-05-04 12:48 | 25.39397 | 51.62700 | 4601 ft | 268 kts | 57° |
| 2026-05-04 12:48 | 25.39948 | 51.65418 | 5357 ft | 280 kts | 81° |
| 2026-05-04 12:48 | 25.40027 | 51.66877 | 5738 ft | 284 kts | 83° |
| 2026-05-04 12:49 | 25.40114 | 51.69073 | 6268 ft | 289 kts | 83° |
| 2026-05-04 12:49 | 25.40208 | 51.71321 | 6782 ft | 293 kts | 83° |
| 2026-05-04 12:49 | 25.40311 | 51.73587 | 7319 ft | 296 kts | 83° |
| 2026-05-04 12:49 | 25.40421 | 51.75861 | 7880 ft | 299 kts | 83° |
| 2026-05-04 12:50 | 25.40534 | 51.78129 | 8405 ft | 302 kts | 83° |
| 2026-05-04 12:50 | 25.40652 | 51.80462 | 8934 ft | 306 kts | 83° |
| 2026-05-04 12:50 | 25.40770 | 51.82831 | 9488 ft | 310 kts | 83° |
| 2026-05-04 12:50 | 25.40894 | 51.85234 | 9965 ft | 316 kts | 84° |
| 2026-05-04 12:51 | 25.41023 | 51.87724 | 10210 ft | 330 kts | 84° |
| 2026-05-04 12:51 | 25.41157 | 51.90307 | 10419 ft | 344 kts | 84° |
| 2026-05-04 12:51 | 25.41295 | 51.93006 | 10633 ft | 357 kts | 84° |
| 2026-05-04 12:51 | 25.41434 | 51.95750 | 10856 ft | 368 kts | 84° |
| 2026-05-04 12:52 | 25.41578 | 51.98626 | 11040 ft | 379 kts | 84° |
| 2026-05-04 12:52 | 25.41726 | 52.01577 | 11304 ft | 386 kts | 85° |
| 2026-05-04 12:52 | 25.41874 | 52.04554 | 11693 ft | 390 kts | 85° |
| 2026-05-04 12:52 | 25.42022 | 52.07560 | 12116 ft | 392 kts | 85° |
| 2026-05-04 12:53 | 25.42171 | 52.10580 | 12540 ft | 395 kts | 85° |
| 2026-05-04 12:53 | 25.42321 | 52.13623 | 12943 ft | 397 kts | 85° |
| 2026-05-04 12:53 | 25.42472 | 52.16681 | 13343 ft | 399 kts | 85° |
| 2026-05-04 12:53 | 25.42622 | 52.19752 | 13739 ft | 401 kts | 85° |
| 2026-05-04 12:54 | 25.42773 | 52.22839 | 14080 ft | 403 kts | 85° |
| 2026-05-04 12:54 | 25.42924 | 52.25950 | 14434 ft | 406 kts | 85° |
| 2026-05-04 12:54 | 25.43075 | 52.29076 | 14784 ft | 408 kts | 85° |
| 2026-05-04 12:54 | 25.43227 | 52.32237 | 15147 ft | 411 kts | 86° |
| 2026-05-04 12:55 | 25.43379 | 52.35400 | 15517 ft | 413 kts | 86° |
| 2026-05-04 12:55 | 25.43529 | 52.38549 | 15860 ft | 415 kts | 86° |
| 2026-05-04 12:55 | 25.43682 | 52.41753 | 16221 ft | 418 kts | 86° |
| 2026-05-04 12:55 | 25.43834 | 52.44969 | 16597 ft | 419 kts | 86° |
| 2026-05-04 12:56 | 25.43986 | 52.48192 | 16978 ft | 421 kts | 86° |
| 2026-05-04 12:56 | 25.44139 | 52.51455 | 17329 ft | 424 kts | 87° |
| 2026-05-04 12:56 | 25.44291 | 52.54724 | 17659 ft | 427 kts | 87° |
| 2026-05-04 12:56 | 25.44443 | 52.58015 | 18005 ft | 430 kts | 87° |
| 2026-05-04 12:57 | 25.44596 | 52.61325 | 18316 ft | 432 kts | 87° |
| 2026-05-04 12:57 | 25.44749 | 52.64646 | 18624 ft | 434 kts | 87° |
| 2026-05-04 12:57 | 25.44902 | 52.67988 | 18927 ft | 436 kts | 87° |
| 2026-05-04 12:57 | 25.45076 | 52.71351 | 19235 ft | 438 kts | 85° |
| 2026-05-04 12:58 | 25.45462 | 52.74662 | 19547 ft | 440 kts | 81° |
| 2026-05-04 12:58 | 25.46009 | 52.77997 | 19831 ft | 442 kts | 78° |
| 2026-05-04 12:58 | 25.46642 | 52.81339 | 20132 ft | 444 kts | 77° |
| 2026-05-04 12:58 | 25.47324 | 52.84679 | 20434 ft | 446 kts | 76° |
| 2026-05-04 12:59 | 25.48089 | 52.88022 | 20680 ft | 448 kts | 77° |
| 2026-05-04 12:59 | 25.48687 | 52.91455 | 20737 ft | 462 kts | 79° |
| 2026-05-04 12:59 | 25.49220 | 52.95015 | 20745 ft | 474 kts | 81° |
| 2026-05-04 12:59 | 25.49711 | 52.98640 | 20742 ft | 477 kts | 81° |
| 2026-05-04 13:00 | 25.50179 | 53.02284 | 20744 ft | 478 kts | 82° |
| 2026-05-04 13:00 | 25.50638 | 53.05935 | 20743 ft | 478 kts | 82° |
| 2026-05-04 13:00 | 25.51096 | 53.09579 | 20750 ft | 478 kts | 82° |
| 2026-05-04 13:00 | 25.51558 | 53.13226 | 20747 ft | 478 kts | 82° |
| 2026-05-04 13:01 | 25.52023 | 53.16867 | 20750 ft | 478 kts | 81° |
| 2026-05-04 13:01 | 25.52491 | 53.20520 | 20743 ft | 478 kts | 81° |
| 2026-05-04 13:01 | 25.52953 | 53.24116 | 20743 ft | 478 kts | 81° |
| 2026-05-04 13:01 | 25.53421 | 53.27765 | 20742 ft | 478 kts | 81° |
| 2026-05-04 13:02 | 25.53889 | 53.31411 | 20738 ft | 478 kts | 81° |
| 2026-05-04 13:02 | 25.54355 | 53.35055 | 20742 ft | 478 kts | 81° |
| 2026-05-04 13:02 | 25.54820 | 53.38693 | 20747 ft | 478 kts | 81° |
| 2026-05-04 13:02 | 25.55286 | 53.42347 | 20737 ft | 478 kts | 81° |
| 2026-05-04 13:03 | 25.55749 | 53.45994 | 20734 ft | 478 kts | 81° |
| 2026-05-04 13:03 | 25.56212 | 53.49643 | 20733 ft | 478 kts | 81° |
| 2026-05-04 13:03 | 25.56673 | 53.53286 | 20737 ft | 478 kts | 81° |
| 2026-05-04 13:03 | 25.57134 | 53.56935 | 20736 ft | 478 kts | 81° |
| 2026-05-04 13:04 | 25.57593 | 53.60579 | 20736 ft | 478 kts | 82° |
| 2026-05-04 13:04 | 25.58052 | 53.64225 | 20733 ft | 478 kts | 81° |
| 2026-05-04 13:04 | 25.58510 | 53.67873 | 20741 ft | 478 kts | 82° |
| 2026-05-04 13:04 | 25.58966 | 53.71516 | 20737 ft | 478 kts | 82° |
| 2026-05-04 13:05 | 25.59423 | 53.75166 | 20743 ft | 478 kts | 81° |
| 2026-05-04 13:05 | 25.59871 | 53.78763 | 20742 ft | 478 kts | 81° |
| 2026-05-04 13:05 | 25.60326 | 53.82417 | 20737 ft | 478 kts | 82° |
| 2026-05-04 13:05 | 25.60779 | 53.86064 | 20730 ft | 478 kts | 82° |
| 2026-05-04 13:06 | 25.61233 | 53.89720 | 20725 ft | 478 kts | 82° |
| 2026-05-04 13:06 | 25.61684 | 53.93372 | 20730 ft | 477 kts | 82° |
| 2026-05-04 13:06 | 25.61929 | 53.97039 | 20737 ft | 477 kts | 88° |
| 2026-05-04 13:06 | 25.61979 | 54.00719 | 20729 ft | 477 kts | 89° |
| 2026-05-04 13:07 | 25.61983 | 54.04392 | 20732 ft | 477 kts | 90° |
| 2026-05-04 13:07 | 25.61972 | 54.08067 | 20743 ft | 477 kts | 90° |
| 2026-05-04 13:07 | 25.61953 | 54.11739 | 20731 ft | 477 kts | 90° |
| 2026-05-04 13:07 | 25.61930 | 54.15378 | 20732 ft | 477 kts | 90° |
| 2026-05-04 13:08 | 25.61905 | 54.19053 | 20731 ft | 477 kts | 90° |
| 2026-05-04 13:08 | 25.61877 | 54.22727 | 20730 ft | 477 kts | 90° |
| 2026-05-04 13:08 | 25.61848 | 54.26409 | 20734 ft | 477 kts | 90° |
| 2026-05-04 13:08 | 25.61818 | 54.30075 | 20677 ft | 476 kts | 90° |
| 2026-05-04 13:09 | 25.61787 | 54.33725 | 20447 ft | 471 kts | 90° |
| 2026-05-04 13:09 | 25.61756 | 54.37327 | 20215 ft | 468 kts | 90° |
| 2026-05-04 13:09 | 25.61723 | 54.40943 | 19969 ft | 467 kts | 90° |
| 2026-05-04 13:09 | 25.61690 | 54.44531 | 19731 ft | 465 kts | 90° |
| 2026-05-04 13:10 | 25.61656 | 54.48104 | 19515 ft | 463 kts | 90° |
| 2026-05-04 13:10 | 25.61621 | 54.51662 | 19238 ft | 461 kts | 89° |
| 2026-05-04 13:10 | 25.61586 | 54.55191 | 18717 ft | 454 kts | 89° |
| 2026-05-04 13:10 | 25.61550 | 54.58688 | 18092 ft | 451 kts | 89° |
| 2026-05-04 13:11 | 25.61514 | 54.62110 | 17395 ft | 447 kts | 89° |
| 2026-05-04 13:11 | 25.61478 | 54.65533 | 16722 ft | 442 kts | 89° |
| 2026-05-04 13:11 | 25.61441 | 54.68919 | 16059 ft | 437 kts | 89° |
| 2026-05-04 13:11 | 25.61404 | 54.72279 | 15431 ft | 433 kts | 89° |
| 2026-05-04 13:12 | 25.61366 | 54.75606 | 14792 ft | 428 kts | 89° |
| 2026-05-04 13:12 | 25.61328 | 54.78890 | 14139 ft | 424 kts | 89° |
| 2026-05-04 13:12 | 25.61290 | 54.82136 | 13496 ft | 420 kts | 89° |
| 2026-05-04 13:12 | 25.61173 | 54.85357 | 12928 ft | 413 kts | 95° |
| 2026-05-04 13:13 | 25.60466 | 54.88408 | 12440 ft | 408 kts | 109° |
| 2026-05-04 13:13 | 25.59386 | 54.91306 | 11866 ft | 405 kts | 112° |
| 2026-05-04 13:13 | 25.58255 | 54.94159 | 11691 ft | 409 kts | 112° |
| 2026-05-04 13:13 | 25.57122 | 54.97020 | 11512 ft | 412 kts | 112° |
| 2026-05-04 13:14 | 25.55972 | 54.99940 | 11294 ft | 411 kts | 112° |
| 2026-05-04 13:14 | 25.54823 | 55.02828 | 11101 ft | 407 kts | 114° |
| 2026-05-04 13:14 | 25.53523 | 55.05542 | 10942 ft | 391 kts | 118° |
| 2026-05-04 13:14 | 25.52196 | 55.08099 | 10729 ft | 375 kts | 118° |
| 2026-05-04 13:15 | 25.50914 | 55.10551 | 10546 ft | 361 kts | 118° |
| 2026-05-04 13:15 | 25.49683 | 55.12908 | 10342 ft | 347 kts | 118° |
| 2026-05-04 13:15 | 25.48497 | 55.15185 | 10172 ft | 334 kts | 118° |
| 2026-05-04 13:15 | 25.47355 | 55.17379 | 9972 ft | 323 kts | 118° |
| 2026-05-04 13:16 | 25.46219 | 55.19489 | 9753 ft | 316 kts | 123° |
| 2026-05-04 13:16 | 25.44849 | 55.21402 | 9604 ft | 318 kts | 129° |
| 2026-05-04 13:16 | 25.43380 | 55.23229 | 9414 ft | 318 kts | 131° |
| 2026-05-04 13:16 | 25.41893 | 55.25035 | 9260 ft | 317 kts | 131° |
| 2026-05-04 13:17 | 25.40414 | 55.26832 | 9087 ft | 315 kts | 131° |
| 2026-05-04 13:17 | 25.38960 | 55.28607 | 8933 ft | 313 kts | 131° |
| 2026-05-04 13:17 | 25.37497 | 55.30396 | 8750 ft | 312 kts | 131° |
| 2026-05-04 13:17 | 25.36059 | 55.32179 | 8580 ft | 310 kts | 129° |
| 2026-05-04 13:18 | 25.34815 | 55.34114 | 8423 ft | 308 kts | 121° |
| 2026-05-04 13:18 | 25.33687 | 55.36120 | 8215 ft | 307 kts | 120° |
| 2026-05-04 13:18 | 25.32572 | 55.38148 | 7816 ft | 305 kts | 120° |
| 2026-05-04 13:18 | 25.31478 | 55.40132 | 7460 ft | 301 kts | 120° |
| 2026-05-04 13:19 | 25.30403 | 55.42074 | 7060 ft | 299 kts | 120° |
| 2026-05-04 13:19 | 25.29324 | 55.44018 | 6677 ft | 296 kts | 120° |
| 2026-05-04 13:19 | 25.28248 | 55.45952 | 6322 ft | 293 kts | 119° |
| 2026-05-04 13:19 | 25.27182 | 55.47871 | 5862 ft | 293 kts | 120° |
| 2026-05-04 13:20 | 25.26112 | 55.49799 | 5351 ft | 295 kts | 120° |
| 2026-05-04 13:20 | 25.25045 | 55.51720 | 5002 ft | 291 kts | 119° |
| 2026-05-04 13:20 | 25.23985 | 55.53625 | 4614 ft | 290 kts | 120° |
| 2026-05-04 13:20 | 25.22941 | 55.55505 | 4293 ft | 284 kts | 119° |
| 2026-05-04 13:21 | 25.21928 | 55.57330 | 4119 ft | 273 kts | 120° |
| 2026-05-04 13:21 | 25.20954 | 55.59075 | 3961 ft | 260 kts | 120° |
| 2026-05-04 13:21 | 25.20033 | 55.60727 | 3763 ft | 247 kts | 120° |
| 2026-05-04 13:21 | 25.19141 | 55.62328 | 3331 ft | 245 kts | 120° |
| 2026-05-04 13:22 | 25.18257 | 55.63925 | 2943 ft | 240 kts | 121° |
| 2026-05-04 13:22 | 25.17154 | 55.65274 | 2443 ft | 237 kts | 146° |
| 2026-05-04 13:22 | 25.15634 | 55.65830 | 2103 ft | 229 kts | 178° |
| 2026-05-04 13:22 | 25.14111 | 55.65417 | 2009 ft | 225 kts | 210° |
| 2026-05-04 13:23 | 25.13077 | 55.64253 | 2010 ft | 207 kts | 244° |
| 2026-05-04 13:23 | 25.12767 | 55.62745 | 2011 ft | 201 kts | 268° |
| 2026-05-04 13:23 | 25.12756 | 55.61222 | 2008 ft | 202 kts | 271° |
| 2026-05-04 13:23 | 25.12845 | 55.59722 | 2007 ft | 192 kts | 282° |
| 2026-05-04 13:24 | 25.13318 | 55.58370 | 2007 ft | 188 kts | 295° |
| 2026-05-04 13:24 | 25.13944 | 55.57113 | 2005 ft | 187 kts | 299° |
| 2026-05-04 13:24 | 25.14580 | 55.55862 | 2007 ft | 185 kts | 298° |
| 2026-05-04 13:25 | 25.15888 | 55.53455 | 2008 ft | 183 kts | 301° |
| 2026-05-04 13:25 | 25.16555 | 55.52258 | 1994 ft | 180 kts | 301° |
| 2026-05-04 13:25 | 25.17181 | 55.51111 | 1992 ft | 169 kts | 301° |
| 2026-05-04 13:25 | 25.17778 | 55.50011 | 2011 ft | 169 kts | 300° |
| 2026-05-04 13:26 | 25.18409 | 55.48861 | 1899 ft | 183 kts | 300° |
| 2026-05-04 13:26 | 25.19082 | 55.47649 | 1650 ft | 181 kts | 301° |
| 2026-05-04 13:26 | 25.19699 | 55.46529 | 1434 ft | 161 kts | 301° |
| 2026-05-04 13:26 | 25.20252 | 55.45522 | 1235 ft | 145 kts | 301° |
| 2026-05-04 13:27 | 25.20752 | 55.44618 | 1067 ft | 134 kts | 300° |
| 2026-05-04 13:27 | 25.21232 | 55.43755 | 898 ft | 134 kts | 300° |
| 2026-05-04 13:27 | 25.21721 | 55.42879 | 752 ft | 134 kts | 299° |
| 2026-05-04 13:27 | 25.22212 | 55.41993 | 577 ft | 134 kts | 299° |
| 2026-05-04 13:28 | 25.22697 | 55.41113 | 411 ft | 133 kts | 301° |
| 2026-05-04 13:28 | 25.23177 | 55.40242 | 236 ft | 132 kts | 300° |
| 2026-05-04 13:28 | 25.23613 | 55.39446 | 66 ft | 131 kts | 299° |
| 2026-05-04 13:28 | 25.24056 | 55.38640 | 30 ft | 93 kts | 301° |